Terminal Aerodrome Forecast
Issued by NWS

Home | Current Version | Previous Version | Text Only | Print | Product List | Glossary On
Versions: 1 2 3 4 5 6 7 8 9 10 11 12 13 14 15
846
FTUS42 KMLB 172320
TAFSFB
TAF
KSFB 172320Z 1800/1824 12005KT P6SM BKN250
      TEMPO 1809/1813 3SM MIFG BR SCT002
     FM181500 23006KT P6SM SCT035 BKN250=

USA.gov is the U.S. government's official web portal to all federal, state and local government web resources and services.